Terminal Aerodrome Forecast
Issued by NWS

Home | Current Version | Previous Version | Text Only | Print | Product List | Glossary On
Versions: 1 2 3 4 5 6 7 8 9 10 11 12 13 14 15 16 17 18 19
000
FTUS43 KDMX 291133
TAFMCW
TAF
KMCW 291133Z 2912/3012 03011KT P6SM BKN200
     FM291400 04012G18KT P6SM SCT100 BKN150
     FM291900 05015G24KT P6SM SCT060 OVC120
     FM300100 06014G21KT P6SM VCSH SCT030 OVC040
     FM300400 06014G23KT 6SM BR VCSH OVC025
     FM300700 05016G24KT 5SM -SHRA BR OVC015=

USA.gov is the U.S. government's official web portal to all federal, state and local government web resources and services.